sensor_id;sensor_type;location;lat;lon;timestamp;P1;durP1;ratioP1;P2;durP2;ratioP2
65315;SDS011;51920;53.952;10.292;2023-06-10T00:02:00;7.60;;;3.60;;
65315;SDS011;51920;53.952;10.292;2023-06-10T00:04:27;11.05;;;3.72;;
65315;SDS011;51920;53.952;10.292;2023-06-10T00:06:54;12.13;;;4.07;;
65315;SDS011;51920;53.952;10.292;2023-06-10T00:09:21;8.93;;;3.60;;
65315;SDS011;51920;53.952;10.292;2023-06-10T00:11:49;6.27;;;3.37;;
65315;SDS011;51920;53.952;10.292;2023-06-10T00:14:16;9.85;;;4.00;;
65315;SDS011;51920;53.952;10.292;2023-06-10T00:16:42;10.95;;;3.50;;
65315;SDS011;51920;53.952;10.292;2023-06-10T00:19:11;8.63;;;3.85;;
65315;SDS011;51920;53.952;10.292;2023-06-10T00:21:40;8.02;;;3.38;;
65315;SDS011;51920;53.952;10.292;2023-06-10T00:24:07;10.03;;;3.80;;
65315;SDS011;51920;53.952;10.292;2023-06-10T00:26:38;10.23;;;3.70;;
65315;SDS011;51920;53.952;10.292;2023-06-10T00:29:07;8.10;;;3.28;;
65315;SDS011;51920;53.952;10.292;2023-06-10T00:31:34;7.57;;;3.05;;
65315;SDS011;51920;53.952;10.292;2023-06-10T00:34:01;5.50;;;3.08;;
65315;SDS011;51920;53.952;10.292;2023-06-10T00:36:30;9.27;;;3.50;;
65315;SDS011;51920;53.952;10.292;2023-06-10T00:38:57;7.65;;;3.30;;
65315;SDS011;51920;53.952;10.292;2023-06-10T00:41:24;6.45;;;3.30;;
65315;SDS011;51920;53.952;10.292;2023-06-10T00:43:52;8.77;;;3.40;;
65315;SDS011;51920;53.952;10.292;2023-06-10T00:46:19;7.82;;;3.40;;
65315;SDS011;51920;53.952;10.292;2023-06-10T00:48:47;8.33;;;3.07;;
65315;SDS011;51920;53.952;10.292;2023-06-10T00:51:15;6.82;;;3.17;;
65315;SDS011;51920;53.952;10.292;2023-06-10T00:53:42;7.97;;;3.50;;
65315;SDS011;51920;53.952;10.292;2023-06-10T00:56:10;6.72;;;2.92;;
65315;SDS011;51920;53.952;10.292;2023-06-10T00:58:37;8.50;;;3.25;;
65315;SDS011;51920;53.952;10.292;2023-06-10T01:01:04;9.23;;;3.27;;
65315;SDS011;51920;53.952;10.292;2023-06-10T01:03:31;7.68;;;3.08;;
65315;SDS011;51920;53.952;10.292;2023-06-10T01:06:09;6.00;;;3.28;;
65315;SDS011;51920;53.952;10.292;2023-06-10T01:11:13;7.68;;;2.90;;
65315;SDS011;51920;53.952;10.292;2023-06-10T01:13:45;6.87;;;3.37;;
65315;SDS011;51920;53.952;10.292;2023-06-10T01:16:12;9.65;;;3.15;;
65315;SDS011;51920;53.952;10.292;2023-06-10T01:18:40;9.35;;;3.10;;
65315;SDS011;51920;53.952;10.292;2023-06-10T01:21:07;6.45;;;2.70;;
65315;SDS011;51920;53.952;10.292;2023-06-10T01:23:34;7.95;;;2.72;;
65315;SDS011;51920;53.952;10.292;2023-06-10T01:26:02;5.93;;;2.57;;
65315;SDS011;51920;53.952;10.292;2023-06-10T01:31:09;9.13;;;2.88;;
65315;SDS011;51920;53.952;10.292;2023-06-10T01:33:48;7.68;;;2.50;;
65315;SDS011;51920;53.952;10.292;2023-06-10T01:36:18;4.82;;;2.70;;
65315;SDS011;51920;53.952;10.292;2023-06-10T01:38:46;7.63;;;2.80;;
65315;SDS011;51920;53.952;10.292;2023-06-10T01:41:15;6.95;;;2.50;;
65315;SDS011;51920;53.952;10.292;2023-06-10T01:43:44;6.15;;;2.78;;
65315;SDS011;51920;53.952;10.292;2023-06-10T01:46:12;5.53;;;2.70;;
65315;SDS011;51920;53.952;10.292;2023-06-10T01:48:41;8.68;;;2.90;;
65315;SDS011;51920;53.952;10.292;2023-06-10T01:51:08;6.17;;;2.40;;
65315;SDS011;51920;53.952;10.292;2023-06-10T01:53:35;6.88;;;2.55;;
65315;SDS011;51920;53.952;10.292;2023-06-10T01:56:02;5.07;;;2.45;;
65315;SDS011;51920;53.952;10.292;2023-06-10T01:58:29;6.72;;;2.70;;
65315;SDS011;51920;53.952;10.292;2023-06-10T02:00:55;8.63;;;2.35;;
65315;SDS011;51920;53.952;10.292;2023-06-10T02:03:22;6.10;;;2.30;;
65315;SDS011;51920;53.952;10.292;2023-06-10T02:05:49;4.72;;;2.30;;
65315;SDS011;51920;53.952;10.292;2023-06-10T02:08:15;6.35;;;2.30;;
65315;SDS011;51920;53.952;10.292;2023-06-10T02:10:42;5.95;;;2.30;;
65315;SDS011;51920;53.952;10.292;2023-06-10T02:13:09;6.68;;;2.50;;
65315;SDS011;51920;53.952;10.292;2023-06-10T02:15:35;5.20;;;2.37;;
65315;SDS011;51920;53.952;10.292;2023-06-10T02:18:02;5.88;;;2.08;;
65315;SDS011;51920;53.952;10.292;2023-06-10T02:20:29;7.07;;;2.30;;
65315;SDS011;51920;53.952;10.292;2023-06-10T02:22:56;5.10;;;2.42;;
65315;SDS011;51920;53.952;10.292;2023-06-10T02:25:23;6.05;;;2.17;;
65315;SDS011;51920;53.952;10.292;2023-06-10T02:27:50;5.70;;;2.40;;
65315;SDS011;51920;53.952;10.292;2023-06-10T02:30:17;5.38;;;2.08;;
65315;SDS011;51920;53.952;10.292;2023-06-10T02:32:43;7.78;;;2.63;;
65315;SDS011;51920;53.952;10.292;2023-06-10T02:35:15;4.43;;;2.17;;
65315;SDS011;51920;53.952;10.292;2023-06-10T02:37:42;7.25;;;2.28;;
65315;SDS011;51920;53.952;10.292;2023-06-10T02:40:09;6.93;;;2.27;;
65315;SDS011;51920;53.952;10.292;2023-06-10T02:42:37;7.05;;;2.20;;
65315;SDS011;51920;53.952;10.292;2023-06-10T02:45:04;5.85;;;2.00;;
65315;SDS011;51920;53.952;10.292;2023-06-10T02:47:37;10.32;;;2.55;;
65315;SDS011;51920;53.952;10.292;2023-06-10T02:50:05;6.57;;;2.00;;
65315;SDS011;51920;53.952;10.292;2023-06-10T02:52:38;7.13;;;2.20;;
65315;SDS011;51920;53.952;10.292;2023-06-10T02:55:05;3.13;;;1.80;;
65315;SDS011;51920;53.952;10.292;2023-06-10T02:57:32;7.47;;;1.90;;
65315;SDS011;51920;53.952;10.292;2023-06-10T03:00:00;5.65;;;1.90;;
65315;SDS011;51920;53.952;10.292;2023-06-10T03:02:30;8.43;;;2.10;;
65315;SDS011;51920;53.952;10.292;2023-06-10T03:04:58;9.70;;;2.20;;
65315;SDS011;51920;53.952;10.292;2023-06-10T03:07:25;8.57;;;2.05;;
65315;SDS011;51920;53.952;10.292;2023-06-10T03:09:53;4.85;;;2.22;;
65315;SDS011;51920;53.952;10.292;2023-06-10T03:12:19;7.32;;;2.17;;
65315;SDS011;51920;53.952;10.292;2023-06-10T03:14:47;6.53;;;2.10;;
65315;SDS011;51920;53.952;10.292;2023-06-10T03:17:15;5.20;;;1.90;;
65315;SDS011;51920;53.952;10.292;2023-06-10T03:19:43;6.25;;;2.10;;
65315;SDS011;51920;53.952;10.292;2023-06-10T03:22:11;6.80;;;2.10;;
65315;SDS011;51920;53.952;10.292;2023-06-10T03:24:58;4.40;;;1.90;;
65315;SDS011;51920;53.952;10.292;2023-06-10T03:27:27;6.00;;;2.20;;
65315;SDS011;51920;53.952;10.292;2023-06-10T03:29:58;6.83;;;2.30;;
65315;SDS011;51920;53.952;10.292;2023-06-10T03:32:26;5.80;;;2.10;;
65315;SDS011;51920;53.952;10.292;2023-06-10T03:34:53;6.47;;;2.08;;
65315;SDS011;51920;53.952;10.292;2023-06-10T03:37:25;5.70;;;2.10;;
65315;SDS011;51920;53.952;10.292;2023-06-10T03:39:52;7.65;;;1.90;;
65315;SDS011;51920;53.952;10.292;2023-06-10T03:42:19;5.73;;;2.00;;
65315;SDS011;51920;53.952;10.292;2023-06-10T03:44:45;3.95;;;2.03;;
65315;SDS011;51920;53.952;10.292;2023-06-10T03:47:12;6.75;;;2.17;;
65315;SDS011;51920;53.952;10.292;2023-06-10T03:49:39;4.85;;;1.90;;
65315;SDS011;51920;53.952;10.292;2023-06-10T03:52:06;4.90;;;1.70;;
65315;SDS011;51920;53.952;10.292;2023-06-10T03:54:33;5.40;;;1.83;;
65315;SDS011;51920;53.952;10.292;2023-06-10T03:57:01;6.30;;;1.98;;
65315;SDS011;51920;53.952;10.292;2023-06-10T03:59:29;6.65;;;2.00;;
65315;SDS011;51920;53.952;10.292;2023-06-10T04:01:56;8.30;;;1.77;;
65315;SDS011;51920;53.952;10.292;2023-06-10T04:04:23;4.80;;;1.90;;
65315;SDS011;51920;53.952;10.292;2023-06-10T04:06:50;6.63;;;2.03;;
65315;SDS011;51920;53.952;10.292;2023-06-10T04:09:17;6.72;;;1.98;;
65315;SDS011;51920;53.952;10.292;2023-06-10T04:11:43;9.15;;;2.00;;
65315;SDS011;51920;53.952;10.292;2023-06-10T04:14:10;5.43;;;1.67;;
65315;SDS011;51920;53.952;10.292;2023-06-10T04:16:39;5.78;;;2.10;;
65315;SDS011;51920;53.952;10.292;2023-06-10T04:19:05;5.63;;;1.90;;
65315;SDS011;51920;53.952;10.292;2023-06-10T04:21:32;5.82;;;2.03;;
65315;SDS011;51920;53.952;10.292;2023-06-10T04:23:59;5.32;;;2.20;;
65315;SDS011;51920;53.952;10.292;2023-06-10T04:26:25;6.72;;;1.80;;
65315;SDS011;51920;53.952;10.292;2023-06-10T04:28:53;7.07;;;1.77;;
65315;SDS011;51920;53.952;10.292;2023-06-10T04:31:21;7.80;;;1.80;;
65315;SDS011;51920;53.952;10.292;2023-06-10T04:33:48;7.50;;;1.80;;
65315;SDS011;51920;53.952;10.292;2023-06-10T04:36:15;4.07;;;1.80;;
65315;SDS011;51920;53.952;10.292;2023-06-10T04:38:41;4.82;;;1.80;;
65315;SDS011;51920;53.952;10.292;2023-06-10T04:41:08;7.13;;;2.22;;
65315;SDS011;51920;53.952;10.292;2023-06-10T04:43:36;5.83;;;1.90;;
65315;SDS011;51920;53.952;10.292;2023-06-10T04:46:03;6.63;;;1.88;;
65315;SDS011;51920;53.952;10.292;2023-06-10T04:48:31;6.43;;;1.63;;
65315;SDS011;51920;53.952;10.292;2023-06-10T04:51:02;5.18;;;1.77;;
65315;SDS011;51920;53.952;10.292;2023-06-10T04:53:29;6.45;;;1.70;;
65315;SDS011;51920;53.952;10.292;2023-06-10T04:55:56;5.53;;;1.80;;
65315;SDS011;51920;53.952;10.292;2023-06-10T04:58:23;4.43;;;1.52;;
65315;SDS011;51920;53.952;10.292;2023-06-10T05:00:50;6.25;;;1.67;;
65315;SDS011;51920;53.952;10.292;2023-06-10T05:03:17;5.45;;;1.42;;
65315;SDS011;51920;53.952;10.292;2023-06-10T05:05:43;6.25;;;1.60;;
65315;SDS011;51920;53.952;10.292;2023-06-10T05:08:10;4.40;;;1.70;;
65315;SDS011;51920;53.952;10.292;2023-06-10T05:10:37;7.72;;;1.70;;
65315;SDS011;51920;53.952;10.292;2023-06-10T05:13:03;3.90;;;2.15;;
65315;SDS011;51920;53.952;10.292;2023-06-10T05:15:30;4.80;;;1.70;;
65315;SDS011;51920;53.952;10.292;2023-06-10T05:17:57;5.03;;;1.63;;
65315;SDS011;51920;53.952;10.292;2023-06-10T05:20:28;4.57;;;1.30;;
65315;SDS011;51920;53.952;10.292;2023-06-10T05:22:55;8.38;;;1.75;;
65315;SDS011;51920;53.952;10.292;2023-06-10T05:25:22;5.93;;;1.60;;
65315;SDS011;51920;53.952;10.292;2023-06-10T05:27:48;6.75;;;1.80;;
65315;SDS011;51920;53.952;10.292;2023-06-10T05:30:15;4.47;;;1.88;;
65315;SDS011;51920;53.952;10.292;2023-06-10T05:32:44;6.10;;;1.70;;
65315;SDS011;51920;53.952;10.292;2023-06-10T05:35:11;5.53;;;1.50;;
65315;SDS011;51920;53.952;10.292;2023-06-10T05:37:38;5.57;;;1.60;;
65315;SDS011;51920;53.952;10.292;2023-06-10T05:40:05;5.78;;;1.58;;
65315;SDS011;51920;53.952;10.292;2023-06-10T05:42:32;7.82;;;1.88;;
65315;SDS011;51920;53.952;10.292;2023-06-10T05:44:58;4.70;;;1.57;;
65315;SDS011;51920;53.952;10.292;2023-06-10T05:47:26;6.18;;;1.83;;
65315;SDS011;51920;53.952;10.292;2023-06-10T05:49:53;6.43;;;1.70;;
65315;SDS011;51920;53.952;10.292;2023-06-10T05:52:19;8.20;;;1.90;;
65315;SDS011;51920;53.952;10.292;2023-06-10T05:54:46;7.95;;;2.00;;
65315;SDS011;51920;53.952;10.292;2023-06-10T05:57:13;4.67;;;1.60;;
65315;SDS011;51920;53.952;10.292;2023-06-10T05:59:39;4.55;;;1.58;;
65315;SDS011;51920;53.952;10.292;2023-06-10T06:02:06;5.60;;;1.83;;
65315;SDS011;51920;53.952;10.292;2023-06-10T06:04:33;6.07;;;1.90;;
65315;SDS011;51920;53.952;10.292;2023-06-10T06:07:00;5.72;;;1.75;;
65315;SDS011;51920;53.952;10.292;2023-06-10T06:09:27;6.27;;;1.93;;
65315;SDS011;51920;53.952;10.292;2023-06-10T06:11:53;4.90;;;1.90;;
65315;SDS011;51920;53.952;10.292;2023-06-10T06:14:20;7.57;;;1.90;;
65315;SDS011;51920;53.952;10.292;2023-06-10T06:16:47;5.43;;;1.75;;
65315;SDS011;51920;53.952;10.292;2023-06-10T06:19:13;7.25;;;1.90;;
65315;SDS011;51920;53.952;10.292;2023-06-10T06:21:40;5.77;;;1.70;;
65315;SDS011;51920;53.952;10.292;2023-06-10T06:24:07;5.93;;;1.90;;
65315;SDS011;51920;53.952;10.292;2023-06-10T06:26:34;5.55;;;1.92;;
65315;SDS011;51920;53.952;10.292;2023-06-10T06:29:00;6.88;;;2.00;;
65315;SDS011;51920;53.952;10.292;2023-06-10T06:31:27;5.20;;;1.90;;
65315;SDS011;51920;53.952;10.292;2023-06-10T06:33:54;5.37;;;1.90;;
65315;SDS011;51920;53.952;10.292;2023-06-10T06:36:21;7.15;;;2.00;;
65315;SDS011;51920;53.952;10.292;2023-06-10T06:38:47;5.70;;;1.77;;
65315;SDS011;51920;53.952;10.292;2023-06-10T06:41:14;6.68;;;2.17;;
65315;SDS011;51920;53.952;10.292;2023-06-10T06:43:40;7.53;;;2.17;;
65315;SDS011;51920;53.952;10.292;2023-06-10T06:46:15;6.23;;;2.00;;
65315;SDS011;51920;53.952;10.292;2023-06-10T06:48:43;7.15;;;2.20;;
65315;SDS011;51920;53.952;10.292;2023-06-10T06:51:10;4.32;;;2.05;;
65315;SDS011;51920;53.952;10.292;2023-06-10T06:53:36;6.82;;;2.03;;
65315;SDS011;51920;53.952;10.292;2023-06-10T06:56:03;6.20;;;2.20;;
65315;SDS011;51920;53.952;10.292;2023-06-10T06:58:30;5.97;;;2.17;;
65315;SDS011;51920;53.952;10.292;2023-06-10T07:00:57;7.00;;;2.08;;
65315;SDS011;51920;53.952;10.292;2023-06-10T07:03:24;6.40;;;1.98;;
65315;SDS011;51920;53.952;10.292;2023-06-10T07:05:51;5.18;;;2.10;;
65315;SDS011;51920;53.952;10.292;2023-06-10T07:08:18;7.88;;;2.45;;
65315;SDS011;51920;53.952;10.292;2023-06-10T07:10:44;7.70;;;2.10;;
65315;SDS011;51920;53.952;10.292;2023-06-10T07:13:11;7.72;;;2.20;;
65315;SDS011;51920;53.952;10.292;2023-06-10T07:15:39;6.15;;;2.17;;
65315;SDS011;51920;53.952;10.292;2023-06-10T07:18:06;6.25;;;1.95;;
65315;SDS011;51920;53.952;10.292;2023-06-10T07:20:33;6.45;;;2.28;;
65315;SDS011;51920;53.952;10.292;2023-06-10T07:23:00;5.83;;;2.40;;
65315;SDS011;51920;53.952;10.292;2023-06-10T07:25:28;5.82;;;2.10;;
65315;SDS011;51920;53.952;10.292;2023-06-10T07:27:54;6.05;;;2.25;;
65315;SDS011;51920;53.952;10.292;2023-06-10T07:30:21;7.43;;;2.05;;
65315;SDS011;51920;53.952;10.292;2023-06-10T07:32:48;9.43;;;2.20;;
65315;SDS011;51920;53.952;10.292;2023-06-10T07:35:14;8.23;;;2.37;;
65315;SDS011;51920;53.952;10.292;2023-06-10T07:37:42;5.25;;;2.20;;
65315;SDS011;51920;53.952;10.292;2023-06-10T07:40:08;4.18;;;2.00;;
65315;SDS011;51920;53.952;10.292;2023-06-10T07:42:35;8.10;;;2.20;;
65315;SDS011;51920;53.952;10.292;2023-06-10T07:45:03;6.50;;;2.20;;
65315;SDS011;51920;53.952;10.292;2023-06-10T07:47:30;5.43;;;2.10;;
65315;SDS011;51920;53.952;10.292;2023-06-10T07:50:00;6.75;;;2.20;;
65315;SDS011;51920;53.952;10.292;2023-06-10T07:52:27;5.05;;;1.98;;
65315;SDS011;51920;53.952;10.292;2023-06-10T07:54:54;6.35;;;2.20;;
65315;SDS011;51920;53.952;10.292;2023-06-10T07:57:21;5.40;;;2.13;;
65315;SDS011;51920;53.952;10.292;2023-06-10T07:59:48;4.63;;;2.30;;
65315;SDS011;51920;53.952;10.292;2023-06-10T08:02:15;6.32;;;2.20;;
65315;SDS011;51920;53.952;10.292;2023-06-10T08:04:41;8.13;;;2.78;;
65315;SDS011;51920;53.952;10.292;2023-06-10T08:07:08;8.13;;;2.55;;
65315;SDS011;51920;53.952;10.292;2023-06-10T08:09:35;6.72;;;2.75;;
65315;SDS011;51920;53.952;10.292;2023-06-10T08:12:02;6.40;;;2.80;;
65315;SDS011;51920;53.952;10.292;2023-06-10T08:14:29;7.45;;;2.30;;
65315;SDS011;51920;53.952;10.292;2023-06-10T08:16:56;5.72;;;2.33;;
65315;SDS011;51920;53.952;10.292;2023-06-10T08:19:23;7.22;;;2.70;;
65315;SDS011;51920;53.952;10.292;2023-06-10T08:21:49;5.07;;;2.38;;
65315;SDS011;51920;53.952;10.292;2023-06-10T08:24:16;6.73;;;2.40;;
65315;SDS011;51920;53.952;10.292;2023-06-10T08:26:44;8.50;;;2.30;;
65315;SDS011;51920;53.952;10.292;2023-06-10T08:29:11;7.22;;;2.45;;
65315;SDS011;51920;53.952;10.292;2023-06-10T08:31:42;7.32;;;2.13;;
65315;SDS011;51920;53.952;10.292;2023-06-10T08:34:09;6.30;;;2.17;;
65315;SDS011;51920;53.952;10.292;2023-06-10T08:36:36;9.20;;;2.17;;
65315;SDS011;51920;53.952;10.292;2023-06-10T08:39:03;5.78;;;2.05;;
65315;SDS011;51920;53.952;10.292;2023-06-10T08:41:30;6.10;;;2.40;;
65315;SDS011;51920;53.952;10.292;2023-06-10T08:44:05;6.28;;;2.10;;
65315;SDS011;51920;53.952;10.292;2023-06-10T08:46:36;8.57;;;2.40;;
65315;SDS011;51920;53.952;10.292;2023-06-10T08:49:04;5.93;;;2.27;;
65315;SDS011;51920;53.952;10.292;2023-06-10T08:51:34;7.93;;;2.45;;
65315;SDS011;51920;53.952;10.292;2023-06-10T08:54:09;7.35;;;2.50;;
65315;SDS011;51920;53.952;10.292;2023-06-10T08:56:41;6.55;;;2.55;;
65315;SDS011;51920;53.952;10.292;2023-06-10T08:59:09;7.88;;;2.85;;
65315;SDS011;51920;53.952;10.292;2023-06-10T09:01:37;7.27;;;2.77;;
65315;SDS011;51920;53.952;10.292;2023-06-10T09:04:04;9.38;;;2.70;;
65315;SDS011;51920;53.952;10.292;2023-06-10T09:06:32;6.72;;;2.47;;
65315;SDS011;51920;53.952;10.292;2023-06-10T09:09:00;6.63;;;2.40;;
65315;SDS011;51920;53.952;10.292;2023-06-10T09:11:28;6.35;;;2.47;;
65315;SDS011;51920;53.952;10.292;2023-06-10T09:13:55;5.27;;;2.20;;
65315;SDS011;51920;53.952;10.292;2023-06-10T09:16:22;5.28;;;2.58;;
65315;SDS011;51920;53.952;10.292;2023-06-10T09:18:49;7.03;;;2.80;;
65315;SDS011;51920;53.952;10.292;2023-06-10T09:21:24;6.45;;;2.42;;
65315;SDS011;51920;53.952;10.292;2023-06-10T09:23:51;7.40;;;2.40;;
65315;SDS011;51920;53.952;10.292;2023-06-10T09:26:18;6.00;;;2.43;;
65315;SDS011;51920;53.952;10.292;2023-06-10T09:28:48;4.25;;;2.08;;
65315;SDS011;51920;53.952;10.292;2023-06-10T09:31:16;7.03;;;2.53;;
65315;SDS011;51920;53.952;10.292;2023-06-10T09:33:48;7.32;;;2.35;;
65315;SDS011;51920;53.952;10.292;2023-06-10T09:36:23;5.82;;;2.50;;
65315;SDS011;51920;53.952;10.292;2023-06-10T09:38:50;9.57;;;2.73;;
65315;SDS011;51920;53.952;10.292;2023-06-10T09:41:17;8.30;;;2.33;;
65315;SDS011;51920;53.952;10.292;2023-06-10T09:43:44;6.55;;;2.50;;
65315;SDS011;51920;53.952;10.292;2023-06-10T09:46:16;10.57;;;2.83;;
65315;SDS011;51920;53.952;10.292;2023-06-10T09:48:44;7.45;;;2.90;;
65315;SDS011;51920;53.952;10.292;2023-06-10T09:51:12;8.73;;;2.87;;
65315;SDS011;51920;53.952;10.292;2023-06-10T09:53:40;5.85;;;2.50;;
65315;SDS011;51920;53.952;10.292;2023-06-10T09:56:07;8.00;;;2.97;;
65315;SDS011;51920;53.952;10.292;2023-06-10T09:58:35;6.72;;;2.70;;
65315;SDS011;51920;53.952;10.292;2023-06-10T10:01:09;8.23;;;3.17;;
65315;SDS011;51920;53.952;10.292;2023-06-10T10:03:44;7.30;;;2.70;;
65315;SDS011;51920;53.952;10.292;2023-06-10T10:06:14;8.32;;;2.55;;
65315;SDS011;51920;53.952;10.292;2023-06-10T10:08:42;8.60;;;2.78;;
65315;SDS011;51920;53.952;10.292;2023-06-10T10:11:10;6.88;;;2.58;;
65315;SDS011;51920;53.952;10.292;2023-06-10T10:13:37;10.77;;;2.50;;
65315;SDS011;51920;53.952;10.292;2023-06-10T10:16:11;7.60;;;2.80;;
65315;SDS011;51920;53.952;10.292;2023-06-10T10:18:43;6.95;;;2.50;;
65315;SDS011;51920;53.952;10.292;2023-06-10T10:21:26;7.13;;;2.78;;
65315;SDS011;51920;53.952;10.292;2023-06-10T10:24:05;6.40;;;2.65;;
65315;SDS011;51920;53.952;10.292;2023-06-10T10:26:38;8.93;;;2.90;;
65315;SDS011;51920;53.952;10.292;2023-06-10T10:29:29;7.27;;;2.63;;
65315;SDS011;51920;53.952;10.292;2023-06-10T10:31:57;7.75;;;2.90;;
65315;SDS011;51920;53.952;10.292;2023-06-10T10:34:30;6.30;;;2.70;;
65315;SDS011;51920;53.952;10.292;2023-06-10T10:37:03;7.32;;;2.85;;
65315;SDS011;51920;53.952;10.292;2023-06-10T10:39:30;9.48;;;2.70;;
65315;SDS011;51920;53.952;10.292;2023-06-10T10:41:59;6.20;;;2.60;;
65315;SDS011;51920;53.952;10.292;2023-06-10T10:44:27;6.82;;;2.95;;
65315;SDS011;51920;53.952;10.292;2023-06-10T10:46:54;7.22;;;2.70;;
65315;SDS011;51920;53.952;10.292;2023-06-10T10:49:20;5.18;;;2.70;;
65315;SDS011;51920;53.952;10.292;2023-06-10T10:51:59;5.93;;;2.60;;
65315;SDS011;51920;53.952;10.292;2023-06-10T10:54:34;7.03;;;2.80;;
65315;SDS011;51920;53.952;10.292;2023-06-10T10:59:59;6.28;;;2.72;;
65315;SDS011;51920;53.952;10.292;2023-06-10T11:02:34;7.22;;;2.70;;
65315;SDS011;51920;53.952;10.292;2023-06-10T11:05:10;7.13;;;3.22;;
65315;SDS011;51920;53.952;10.292;2023-06-10T11:07:37;5.93;;;2.90;;
65315;SDS011;51920;53.952;10.292;2023-06-10T11:10:11;9.25;;;3.00;;
65315;SDS011;51920;53.952;10.292;2023-06-10T11:15:12;7.57;;;2.70;;
65315;SDS011;51920;53.952;10.292;2023-06-10T11:23:26;5.55;;;2.60;;
65315;SDS011;51920;53.952;10.292;2023-06-10T11:29:00;6.78;;;2.72;;
65315;SDS011;51920;53.952;10.292;2023-06-10T11:31:32;6.07;;;2.50;;
65315;SDS011;51920;53.952;10.292;2023-06-10T11:34:06;7.53;;;2.60;;
65315;SDS011;51920;53.952;10.292;2023-06-10T11:36:34;5.70;;;2.58;;
65315;SDS011;51920;53.952;10.292;2023-06-10T11:39:04;6.57;;;2.50;;
65315;SDS011;51920;53.952;10.292;2023-06-10T11:41:32;8.25;;;2.78;;
65315;SDS011;51920;53.952;10.292;2023-06-10T11:44:04;7.40;;;2.75;;
65315;SDS011;51920;53.952;10.292;2023-06-10T11:46:35;8.73;;;2.87;;
65315;SDS011;51920;53.952;10.292;2023-06-10T11:49:02;6.88;;;2.80;;
65315;SDS011;51920;53.952;10.292;2023-06-10T11:51:39;5.78;;;2.83;;
65315;SDS011;51920;53.952;10.292;2023-06-10T11:54:08;8.07;;;2.97;;
65315;SDS011;51920;53.952;10.292;2023-06-10T11:56:35;8.75;;;2.90;;
65315;SDS011;51920;53.952;10.292;2023-06-10T11:59:03;6.83;;;2.67;;
65315;SDS011;51920;53.952;10.292;2023-06-10T12:01:36;7.90;;;2.88;;
65315;SDS011;51920;53.952;10.292;2023-06-10T12:04:07;6.32;;;2.80;;
65315;SDS011;51920;53.952;10.292;2023-06-10T12:06:45;7.22;;;2.70;;
65315;SDS011;51920;53.952;10.292;2023-06-10T12:09:19;7.03;;;2.80;;
65315;SDS011;51920;53.952;10.292;2023-06-10T12:11:54;10.57;;;3.10;;
65315;SDS011;51920;53.952;10.292;2023-06-10T12:17:23;7.50;;;2.80;;
65315;SDS011;51920;53.952;10.292;2023-06-10T12:20:03;6.63;;;2.70;;
65315;SDS011;51920;53.952;10.292;2023-06-10T12:22:39;7.10;;;2.90;;
65315;SDS011;51920;53.952;10.292;2023-06-10T12:25:08;6.33;;;2.90;;
65315;SDS011;51920;53.952;10.292;2023-06-10T12:27:36;6.32;;;2.70;;
65315;SDS011;51920;53.952;10.292;2023-06-10T12:30:05;6.32;;;2.90;;
65315;SDS011;51920;53.952;10.292;2023-06-10T12:32:43;5.93;;;2.72;;
65315;SDS011;51920;53.952;10.292;2023-06-10T12:35:12;6.95;;;2.70;;
65315;SDS011;51920;53.952;10.292;2023-06-10T12:37:40;5.50;;;2.67;;
65315;SDS011;51920;53.952;10.292;2023-06-10T12:40:08;6.95;;;2.72;;
65315;SDS011;51920;53.952;10.292;2023-06-10T12:42:36;9.02;;;2.90;;
65315;SDS011;51920;53.952;10.292;2023-06-10T12:45:03;6.82;;;3.05;;
65315;SDS011;51920;53.952;10.292;2023-06-10T12:47:34;6.03;;;2.92;;
65315;SDS011;51920;53.952;10.292;2023-06-10T12:50:05;6.30;;;2.73;;
65315;SDS011;51920;53.952;10.292;2023-06-10T12:52:32;6.60;;;3.08;;
65315;SDS011;51920;53.952;10.292;2023-06-10T12:54:59;6.72;;;2.78;;
65315;SDS011;51920;53.952;10.292;2023-06-10T12:57:27;8.05;;;2.92;;
65315;SDS011;51920;53.952;10.292;2023-06-10T12:59:53;6.53;;;2.75;;
65315;SDS011;51920;53.952;10.292;2023-06-10T13:02:22;8.00;;;2.60;;
65315;SDS011;51920;53.952;10.292;2023-06-10T13:04:50;8.32;;;2.72;;
65315;SDS011;51920;53.952;10.292;2023-06-10T13:07:17;6.60;;;2.78;;
65315;SDS011;51920;53.952;10.292;2023-06-10T13:09:44;7.53;;;2.50;;
65315;SDS011;51920;53.952;10.292;2023-06-10T13:12:11;6.80;;;2.30;;
65315;SDS011;51920;53.952;10.292;2023-06-10T13:14:41;5.63;;;2.57;;
65315;SDS011;51920;53.952;10.292;2023-06-10T13:17:08;7.53;;;2.40;;
65315;SDS011;51920;53.952;10.292;2023-06-10T13:19:34;5.13;;;2.40;;
65315;SDS011;51920;53.952;10.292;2023-06-10T13:22:01;6.15;;;2.50;;
65315;SDS011;51920;53.952;10.292;2023-06-10T13:24:28;5.30;;;2.40;;
65315;SDS011;51920;53.952;10.292;2023-06-10T13:26:55;7.07;;;2.53;;
65315;SDS011;51920;53.952;10.292;2023-06-10T13:29:22;6.57;;;2.40;;
65315;SDS011;51920;53.952;10.292;2023-06-10T13:31:49;8.43;;;2.60;;
65315;SDS011;51920;53.952;10.292;2023-06-10T13:34:16;6.75;;;2.60;;
65315;SDS011;51920;53.952;10.292;2023-06-10T13:36:52;6.82;;;2.53;;
65315;SDS011;51920;53.952;10.292;2023-06-10T13:39:19;9.53;;;2.50;;
65315;SDS011;51920;53.952;10.292;2023-06-10T13:41:53;12.55;;;2.70;;
65315;SDS011;51920;53.952;10.292;2023-06-10T13:44:47;4.60;;;2.33;;
65315;SDS011;51920;53.952;10.292;2023-06-10T13:47:14;7.20;;;2.58;;
65315;SDS011;51920;53.952;10.292;2023-06-10T13:49:41;6.05;;;2.50;;
65315;SDS011;51920;53.952;10.292;2023-06-10T13:52:08;6.53;;;2.60;;
65315;SDS011;51920;53.952;10.292;2023-06-10T13:54:35;5.22;;;2.45;;
65315;SDS011;51920;53.952;10.292;2023-06-10T13:57:04;8.35;;;2.70;;
65315;SDS011;51920;53.952;10.292;2023-06-10T13:59:31;5.78;;;2.60;;
65315;SDS011;51920;53.952;10.292;2023-06-10T14:01:58;7.35;;;2.83;;
65315;SDS011;51920;53.952;10.292;2023-06-10T14:04:24;7.60;;;2.93;;
65315;SDS011;51920;53.952;10.292;2023-06-10T14:06:51;6.72;;;2.55;;
65315;SDS011;51920;53.952;10.292;2023-06-10T14:09:18;8.20;;;2.60;;
65315;SDS011;51920;53.952;10.292;2023-06-10T14:11:45;7.05;;;2.90;;
65315;SDS011;51920;53.952;10.292;2023-06-10T14:14:12;9.57;;;2.60;;
65315;SDS011;51920;53.952;10.292;2023-06-10T14:16:38;12.77;;;2.90;;
65315;SDS011;51920;53.952;10.292;2023-06-10T14:19:07;8.95;;;2.53;;
65315;SDS011;51920;53.952;10.292;2023-06-10T14:21:33;6.32;;;2.58;;
65315;SDS011;51920;53.952;10.292;2023-06-10T14:24:00;6.38;;;2.60;;
65315;SDS011;51920;53.952;10.292;2023-06-10T14:26:27;8.65;;;2.50;;
65315;SDS011;51920;53.952;10.292;2023-06-10T14:28:54;8.93;;;2.77;;
65315;SDS011;51920;53.952;10.292;2023-06-10T14:31:21;6.35;;;2.58;;
65315;SDS011;51920;53.952;10.292;2023-06-10T14:33:48;5.30;;;2.50;;
65315;SDS011;51920;53.952;10.292;2023-06-10T14:36:14;6.45;;;2.70;;
65315;SDS011;51920;53.952;10.292;2023-06-10T14:38:41;5.88;;;2.65;;
65315;SDS011;51920;53.952;10.292;2023-06-10T14:41:08;6.73;;;2.60;;
65315;SDS011;51920;53.952;10.292;2023-06-10T14:43:34;6.35;;;2.67;;
65315;SDS011;51920;53.952;10.292;2023-06-10T14:46:01;6.63;;;2.90;;
65315;SDS011;51920;53.952;10.292;2023-06-10T14:48:28;7.38;;;2.58;;
65315;SDS011;51920;53.952;10.292;2023-06-10T14:50:54;6.65;;;2.80;;
65315;SDS011;51920;53.952;10.292;2023-06-10T14:53:21;6.50;;;2.50;;
65315;SDS011;51920;53.952;10.292;2023-06-10T14:55:48;6.93;;;2.58;;
65315;SDS011;51920;53.952;10.292;2023-06-10T14:58:14;6.07;;;2.95;;
65315;SDS011;51920;53.952;10.292;2023-06-10T15:00:41;5.38;;;2.90;;
65315;SDS011;51920;53.952;10.292;2023-06-10T15:03:08;4.43;;;2.60;;